createdAt,value
2023-03-15T00:02:17.062Z,5.50
2023-03-15T00:07:41.885Z,7.70
2023-03-15T00:13:06.934Z,2.80
2023-03-15T00:18:31.961Z,7.20
2023-03-15T00:23:56.995Z,4.80
2023-03-15T00:29:20.939Z,7.30
2023-03-15T00:34:49.317Z,0.80
2023-03-15T00:40:14.404Z,6.50
2023-03-15T00:45:40.236Z,2.10
2023-03-15T00:51:09.253Z,8.50
2023-03-15T00:56:33.423Z,1.70
2023-03-15T01:01:58.282Z,9.90
2023-03-15T01:07:22.193Z,1.60
2023-03-15T01:12:46.739Z,1.10
2023-03-15T01:18:11.787Z,1.60
2023-03-15T01:23:35.690Z,10.30
2023-03-15T01:29:00.108Z,5.70
2023-03-15T01:34:24.433Z,7.40
2023-03-15T01:39:49.973Z,2.80
2023-03-15T01:45:51.766Z,3.90
2023-03-15T01:51:23.831Z,4.50
2023-03-15T01:56:55.174Z,2.20
2023-03-15T02:02:23.045Z,3.00
2023-03-15T02:07:50.790Z,6.20
2023-03-15T02:13:19.823Z,3.20
2023-03-15T02:18:44.181Z,2.90
2023-03-15T02:24:34.542Z,1.90
2023-03-15T02:29:59.658Z,2.30
2023-03-15T02:35:29.414Z,8.00
2023-03-15T02:40:54.198Z,1.60
2023-03-15T02:46:19.229Z,6.10
2023-03-15T02:51:44.074Z,3.70
2023-03-15T02:57:11.578Z,10.50
2023-03-15T03:02:35.659Z,16.10
2023-03-15T03:07:59.812Z,3.60
2023-03-15T03:13:24.013Z,1.60
2023-03-15T03:18:48.336Z,3.00
2023-03-15T03:24:16.635Z,4.50
2023-03-15T03:29:42.512Z,2.30
2023-03-15T03:35:08.847Z,7.60
2023-03-15T03:40:32.987Z,3.90
2023-03-15T03:45:57.645Z,5.00
2023-03-15T03:51:22.047Z,7.20
2023-03-15T03:56:47.145Z,2.20
2023-03-15T04:02:12.936Z,1.90
2023-03-15T04:07:41.998Z,4.70
2023-03-15T04:13:07.408Z,1.30
2023-03-15T04:18:31.530Z,9.30
2023-03-15T04:23:56.519Z,3.50
2023-03-15T04:29:39.821Z,2.60
2023-03-15T04:35:22.965Z,3.40
2023-03-15T04:40:59.915Z,7.40
2023-03-15T04:46:47.786Z,5.90
2023-03-15T04:52:21.808Z,5.40
2023-03-15T04:58:02.408Z,7.00
2023-03-15T05:03:36.548Z,8.90
2023-03-15T05:09:26.408Z,5.80
2023-03-15T05:15:14.377Z,6.50
2023-03-15T05:20:57.151Z,6.00
2023-03-15T05:26:35.646Z,3.20
2023-03-15T05:32:27.181Z,6.90
2023-03-15T05:38:27.092Z,9.70
2023-03-15T05:44:12.061Z,11.80
2023-03-15T05:49:56.117Z,7.60
2023-03-15T06:01:06.323Z,7.60
2023-03-15T06:06:44.313Z,7.70
2023-03-15T06:12:10.483Z,6.90
2023-03-15T06:17:36.634Z,5.00
2023-03-15T06:23:01.067Z,5.10
2023-03-15T06:28:35.122Z,6.30
2023-03-15T06:33:59.676Z,8.60
2023-03-15T06:39:24.220Z,4.90
2023-03-15T06:44:51.124Z,3.00
2023-03-15T06:50:18.158Z,5.20
2023-03-15T06:55:42.307Z,5.70
2023-03-15T07:01:06.712Z,5.40
2023-03-15T07:06:31.382Z,4.00
2023-03-15T07:11:55.565Z,4.80
2023-03-15T07:17:20.374Z,3.60
2023-03-15T07:22:46.692Z,7.00
2023-03-15T07:28:11.122Z,13.20
2023-03-15T07:33:36.964Z,4.70
2023-03-15T07:39:02.038Z,3.40
2023-03-15T07:44:26.863Z,9.80
2023-03-15T07:49:52.398Z,3.20
2023-03-15T07:55:18.386Z,5.30
2023-03-15T08:00:42.719Z,8.60
2023-03-15T08:06:07.159Z,6.60
2023-03-15T08:11:31.832Z,6.90
2023-03-15T08:17:52.269Z,3.60
2023-03-15T08:23:23.635Z,2.80
2023-03-15T08:28:48.808Z,2.60
2023-03-15T08:34:13.448Z,9.10
2023-03-15T08:39:38.224Z,3.00
2023-03-15T08:45:03.523Z,5.30
2023-03-15T08:50:28.938Z,2.60
2023-03-15T08:55:54.079Z,5.80
2023-03-15T09:01:19.952Z,2.30
2023-03-15T09:06:44.815Z,4.50
2023-03-15T09:12:09.185Z,2.90
2023-03-15T09:17:33.566Z,3.50
2023-03-15T09:22:59.412Z,3.10
2023-03-15T09:28:26.084Z,3.40
2023-03-15T09:33:51.906Z,0.90
2023-03-15T09:39:16.410Z,4.40
2023-03-15T09:44:58.533Z,3.80
2023-03-15T09:50:29.806Z,5.70
2023-03-15T09:55:54.876Z,4.00
2023-03-15T10:01:30.419Z,5.70
2023-03-15T10:07:01.319Z,9.70
2023-03-15T10:12:43.092Z,3.80
2023-03-15T10:18:27.186Z,5.60
2023-03-15T10:23:54.484Z,6.30
2023-03-15T10:29:25.228Z,6.80
2023-03-15T10:34:52.593Z,3.90
2023-03-15T10:40:40.300Z,3.10
2023-03-15T10:46:23.717Z,6.80
2023-03-15T10:51:49.117Z,3.70
2023-03-15T10:57:19.691Z,2.10
2023-03-15T11:03:06.296Z,6.50
2023-03-15T11:08:40.330Z,5.50
2023-03-15T11:14:07.586Z,8.20
2023-03-15T11:19:38.282Z,6.00
2023-03-15T11:25:02.443Z,3.20
2023-03-15T11:30:31.732Z,5.30
2023-03-15T11:35:59.002Z,7.50
2023-03-15T11:41:41.571Z,7.00
2023-03-15T11:52:52.172Z,4.40
2023-03-15T11:58:35.814Z,2.00
2023-03-15T12:04:24.882Z,2.20
2023-03-15T12:09:52.707Z,6.30
2023-03-15T12:15:20.566Z,5.20
2023-03-15T12:21:15.250Z,4.00
2023-03-15T12:26:48.121Z,6.40
2023-03-15T12:32:16.270Z,7.50
2023-03-15T12:37:46.491Z,10.60
2023-03-15T12:43:12.951Z,2.70
2023-03-15T12:49:27.026Z,3.70
2023-03-15T12:55:18.610Z,3.60
2023-03-15T13:00:44.035Z,8.40
2023-03-15T13:06:27.323Z,6.00
2023-03-15T13:11:57.541Z,8.10
2023-03-15T13:17:32.058Z,6.70
2023-03-15T13:23:05.334Z,4.60
2023-03-15T13:28:38.518Z,3.30
2023-03-15T13:34:26.547Z,6.60
2023-03-15T13:40:08.844Z,2.20
2023-03-15T13:45:37.649Z,1.30
2023-03-15T13:51:23.753Z,4.60
2023-03-15T13:56:56.808Z,1.20
2023-03-15T14:02:35.651Z,1.40
2023-03-15T14:08:04.513Z,0.90
2023-03-15T14:13:47.216Z,1.40
2023-03-15T14:19:21.740Z,1.60
2023-03-15T14:24:49.405Z,1.30
2023-03-15T14:30:27.114Z,2.20
2023-03-15T14:35:58.731Z,1.30
2023-03-15T14:41:31.980Z,2.80
2023-03-15T14:46:56.385Z,1.50
2023-03-15T14:52:24.517Z,4.20
2023-03-15T14:57:48.896Z,2.40
2023-03-15T15:03:38.912Z,2.80
2023-03-15T15:09:06.291Z,1.80
2023-03-15T15:14:30.788Z,1.50
2023-03-15T15:19:55.068Z,5.10
2023-03-15T15:25:30.475Z,3.20
2023-03-15T15:30:54.622Z,2.40
2023-03-15T15:36:32.624Z,2.70
2023-03-15T15:41:58.393Z,3.60
2023-03-15T15:47:23.179Z,3.60
2023-03-15T15:52:50.382Z,2.90
2023-03-15T15:58:15.773Z,3.50
2023-03-15T16:03:40.172Z,1.80
2023-03-15T16:09:08.762Z,1.40
2023-03-15T16:14:33.866Z,2.20
2023-03-15T16:19:58.155Z,2.80
2023-03-15T16:25:28.234Z,6.80
2023-03-15T16:30:53.030Z,1.10
2023-03-15T16:36:22.580Z,3.10
2023-03-15T16:41:48.257Z,3.90
2023-03-15T16:47:14.021Z,4.20
2023-03-15T16:52:39.561Z,3.40
2023-03-15T16:58:13.595Z,3.50
2023-03-15T17:03:37.896Z,5.00
2023-03-15T17:09:05.278Z,1.90
2023-03-15T17:14:35.920Z,2.80
2023-03-15T17:20:00.955Z,2.70
2023-03-15T17:25:26.047Z,1.60
2023-03-15T17:30:55.212Z,4.90
2023-03-15T17:36:26.578Z,6.30
2023-03-15T17:41:51.094Z,8.50
2023-03-15T17:47:16.012Z,14.10
2023-03-15T17:52:43.497Z,8.80
2023-03-15T17:58:12.797Z,8.50
2023-03-15T18:03:37.208Z,9.60
2023-03-15T18:09:01.672Z,11.60
2023-03-15T18:14:26.398Z,13.70
2023-03-15T18:19:50.748Z,17.70
2023-03-15T18:25:28.298Z,11.80
2023-03-15T18:30:52.363Z,20.00
2023-03-15T18:36:16.883Z,15.80
2023-03-15T18:41:42.042Z,12.60
2023-03-15T18:47:08.614Z,10.80
2023-03-15T18:52:33.624Z,16.00
2023-03-15T18:57:59.329Z,14.30
2023-03-15T19:03:24.321Z,17.90
2023-03-15T19:08:53.637Z,13.60
2023-03-15T19:14:18.502Z,10.20
2023-03-15T19:19:42.859Z,14.00
2023-03-15T19:25:09.356Z,19.20
2023-03-15T19:30:35.344Z,15.70
2023-03-15T19:36:00.508Z,12.90
2023-03-15T19:41:25.244Z,15.80
2023-03-15T19:46:51.281Z,12.20
2023-03-15T19:52:16.491Z,13.50
2023-03-15T19:57:41.690Z,14.80
2023-03-15T20:03:06.677Z,15.30
2023-03-15T20:08:30.923Z,13.00
2023-03-15T20:13:55.424Z,12.80
2023-03-15T20:19:20.526Z,18.80
2023-03-15T20:24:45.186Z,15.40
2023-03-15T20:30:11.841Z,15.20
2023-03-15T20:35:37.736Z,17.20
2023-03-15T20:41:02.125Z,20.10
2023-03-15T20:46:30.111Z,20.70
2023-03-15T20:51:54.133Z,22.00
2023-03-15T20:57:18.500Z,18.50
2023-03-15T21:02:43.590Z,19.30
2023-03-15T21:08:08.837Z,16.90
2023-03-15T21:13:34.141Z,16.10
2023-03-15T21:18:58.182Z,22.50
2023-03-15T21:24:22.603Z,19.60
2023-03-15T21:29:46.773Z,17.40
2023-03-15T21:35:12.023Z,20.00
2023-03-15T21:40:37.601Z,17.40
2023-03-15T21:46:04.579Z,20.60
2023-03-15T21:51:29.856Z,24.90
2023-03-15T21:56:53.833Z,21.90
2023-03-15T22:02:18.076Z,15.70
2023-03-15T22:07:43.316Z,15.90
2023-03-15T22:13:08.655Z,15.30
2023-03-15T22:18:33.128Z,16.00
2023-03-15T22:23:57.894Z,23.40
2023-03-15T22:29:21.995Z,12.80
2023-03-15T22:34:47.202Z,14.20
2023-03-15T22:40:14.670Z,10.70
2023-03-15T22:45:40.491Z,10.00
2023-03-15T22:51:08.103Z,8.60
2023-03-15T22:56:32.285Z,10.50
2023-03-15T23:01:57.503Z,9.70
2023-03-15T23:07:21.734Z,8.70
2023-03-15T23:12:47.094Z,9.40
2023-03-15T23:18:14.093Z,7.30
2023-03-15T23:23:43.035Z,9.80
2023-03-15T23:29:13.983Z,8.40
2023-03-15T23:34:42.902Z,7.60
2023-03-15T23:40:15.799Z,7.50
2023-03-15T23:51:05.644Z,9.60
2023-03-15T23:56:30.772Z,7.80
